createdAt,value
2018-09-27T00:00:37.012Z,11.40
2018-09-27T00:03:08.055Z,11.50
2018-09-27T00:05:38.380Z,11.50
2018-09-27T00:08:08.780Z,11.50
2018-09-27T00:10:39.114Z,11.60
2018-09-27T00:13:09.503Z,11.60
2018-09-27T00:15:39.903Z,11.50
2018-09-27T00:18:11.043Z,11.50
2018-09-27T00:20:41.442Z,11.50
2018-09-27T00:23:11.850Z,11.40
2018-09-27T00:25:45.296Z,11.40
2018-09-27T00:28:16.459Z,11.40
2018-09-27T00:30:46.856Z,11.40
2018-09-27T00:33:17.296Z,11.30
2018-09-27T00:35:47.711Z,11.20
2018-09-27T00:38:18.038Z,11.30
2018-09-27T00:40:48.434Z,11.40
2018-09-27T00:43:18.765Z,11.30
2018-09-27T00:45:49.231Z,11.00
2018-09-27T00:48:19.803Z,11.00
2018-09-27T00:50:50.192Z,11.10
2018-09-27T00:53:21.365Z,11.20
2018-09-27T00:55:56.497Z,11.30
2018-09-27T00:58:26.944Z,10.80
2018-09-27T01:01:17.398Z,11.10
2018-09-27T01:03:49.237Z,11.10
2018-09-27T01:06:19.618Z,11.10
2018-09-27T01:08:50.004Z,11.10
2018-09-27T01:11:21.238Z,11.00
2018-09-27T01:13:51.566Z,11.00
2018-09-27T01:16:21.944Z,11.00
2018-09-27T01:18:56.456Z,11.10
2018-09-27T01:21:26.873Z,11.10
2018-09-27T01:23:57.250Z,11.00
2018-09-27T01:26:27.651Z,11.00
2018-09-27T01:29:05.363Z,11.00
2018-09-27T01:31:35.691Z,11.00
2018-09-27T01:34:06.074Z,10.90
2018-09-27T01:36:36.456Z,10.90
2018-09-27T01:39:06.862Z,10.90
2018-09-27T01:41:37.323Z,10.80
2018-09-27T01:44:07.646Z,10.90
2018-09-27T01:46:38.038Z,10.90
2018-09-27T01:49:27.560Z,10.90
2018-09-27T01:51:57.942Z,10.80
2018-09-27T01:54:30.375Z,10.90
2018-09-27T01:57:00.763Z,10.90
2018-09-27T01:59:31.174Z,10.80
2018-09-27T02:02:01.561Z,10.90
2018-09-27T02:04:31.933Z,10.80
2018-09-27T02:07:02.338Z,10.70
2018-09-27T02:09:36.747Z,10.60
2018-09-27T02:12:07.149Z,10.70
2018-09-27T02:14:38.493Z,10.60
2018-09-27T02:17:09.645Z,10.50
2018-09-27T02:19:40.029Z,10.50
2018-09-27T02:22:10.420Z,10.50
2018-09-27T02:24:40.804Z,10.60
2018-09-27T02:27:11.187Z,10.60
2018-09-27T02:29:43.568Z,10.50
2018-09-27T02:32:18.218Z,10.50
2018-09-27T02:34:48.809Z,10.50
2018-09-27T02:37:23.314Z,10.60
2018-09-27T02:39:53.695Z,10.50
2018-09-27T02:42:24.083Z,10.60
2018-09-27T02:44:54.426Z,10.60
2018-09-27T02:47:24.800Z,10.50
2018-09-27T02:49:55.961Z,10.40
2018-09-27T02:52:26.427Z,10.40
2018-09-27T02:55:00.909Z,10.30
2018-09-27T02:57:31.285Z,10.40
2018-09-27T03:00:01.687Z,10.30
2018-09-27T03:02:36.129Z,10.20
2018-09-27T03:05:06.461Z,10.10
2018-09-27T03:07:36.882Z,10.10
2018-09-27T03:10:09.321Z,10.10
2018-09-27T03:12:39.713Z,10.10
2018-09-27T03:15:10.125Z,10.20
2018-09-27T03:17:40.514Z,10.20
2018-09-27T03:20:10.912Z,10.30
2018-09-27T03:22:41.332Z,10.30
2018-09-27T03:25:12.493Z,10.00
2018-09-27T03:27:42.890Z,9.90
2018-09-27T03:30:13.294Z,9.80
2018-09-27T03:32:43.669Z,9.90
2018-09-27T03:35:14.058Z,10.00
2018-09-27T03:37:44.397Z,9.90
2018-09-27T03:40:14.761Z,9.90
2018-09-27T03:42:45.104Z,10.00
2018-09-27T03:45:15.509Z,9.90
2018-09-27T03:47:45.891Z,9.90
2018-09-27T03:50:16.291Z,10.00
2018-09-27T03:52:47.729Z,10.00
2018-09-27T03:55:18.122Z,10.10
2018-09-27T03:57:49.281Z,10.00
2018-09-27T04:00:19.883Z,10.00
2018-09-27T04:05:44.816Z,10.00
2018-09-27T04:08:15.963Z,10.10
2018-09-27T04:10:47.051Z,10.00
2018-09-27T04:13:19.497Z,10.00
2018-09-27T04:15:49.917Z,10.00
2018-09-27T04:18:20.436Z,10.00
2018-09-27T04:20:51.595Z,9.90
2018-09-27T04:23:21.991Z,9.90
2018-09-27T04:25:52.383Z,9.80
2018-09-27T04:28:22.766Z,9.80
2018-09-27T04:30:53.144Z,9.50
2018-09-27T04:33:23.521Z,9.60
2018-09-27T04:35:53.937Z,9.50
2018-09-27T04:38:24.325Z,9.50
2018-09-27T04:40:54.832Z,9.80
2018-09-27T04:43:25.115Z,9.80
2018-09-27T04:45:56.374Z,9.80
2018-09-27T04:48:27.437Z,9.80
2018-09-27T04:50:58.710Z,9.80
2018-09-27T04:53:29.108Z,9.90
2018-09-27T04:55:59.498Z,9.80
2018-09-27T04:58:31.354Z,9.80
2018-09-27T05:01:01.755Z,9.80
2018-09-27T05:03:33.353Z,9.90
2018-09-27T05:06:04.532Z,9.90
2018-09-27T05:08:42.072Z,9.90
2018-09-27T05:11:12.413Z,9.90
2018-09-27T05:13:43.570Z,9.80
2018-09-27T05:16:14.736Z,9.90
2018-09-27T05:18:45.132Z,9.80
2018-09-27T05:21:16.276Z,9.80
2018-09-27T05:23:46.662Z,9.80
2018-09-27T05:26:17.727Z,9.80
2018-09-27T05:28:50.149Z,9.90
2018-09-27T05:31:20.543Z,9.80
2018-09-27T05:33:51.721Z,9.70
2018-09-27T05:36:22.102Z,9.70
2018-09-27T05:38:53.261Z,9.70
2018-09-27T05:41:25.309Z,9.70
2018-09-27T05:43:55.619Z,9.70
2018-09-27T05:46:26.052Z,9.70
2018-09-27T05:48:56.466Z,10.70
2018-09-27T05:51:26.922Z,10.30
2018-09-27T05:53:57.315Z,10.10
2018-09-27T05:56:27.757Z,9.90
2018-09-27T05:58:58.106Z,9.80
2018-09-27T06:01:29.242Z,9.80
2018-09-27T06:04:06.339Z,9.70
2018-09-27T06:06:36.962Z,9.70
2018-09-27T06:09:09.433Z,9.70
2018-09-27T06:11:41.910Z,9.80
2018-09-27T06:14:12.420Z,9.80
2018-09-27T06:16:42.781Z,9.90
2018-09-27T06:19:13.961Z,9.90
2018-09-27T06:21:45.069Z,10.00
2018-09-27T06:24:15.397Z,10.00
2018-09-27T06:26:46.584Z,10.00
2018-09-27T06:29:37.536Z,10.00
2018-09-27T06:32:07.980Z,10.10
2018-09-27T06:34:39.133Z,10.20
2018-09-27T06:37:10.352Z,10.20
2018-09-27T06:39:42.064Z,10.20
2018-09-27T06:42:11.107Z,10.40
2018-09-27T06:44:42.196Z,10.30
2018-09-27T06:47:14.631Z,10.30
2018-09-27T06:49:45.873Z,10.30
2018-09-27T06:52:16.190Z,10.30
2018-09-27T06:54:47.440Z,10.50
2018-09-27T06:57:17.851Z,10.50
2018-09-27T06:59:48.236Z,10.60
2018-09-27T07:02:18.721Z,10.80
2018-09-27T07:04:49.066Z,10.90
2018-09-27T07:07:20.262Z,11.20
2018-09-27T07:09:50.589Z,11.20
2018-09-27T07:12:21.295Z,11.00
2018-09-27T07:14:51.446Z,10.80
2018-09-27T07:17:21.879Z,10.70
2018-09-27T07:19:52.226Z,10.60
2018-09-27T07:22:23.414Z,10.70
2018-09-27T07:24:53.830Z,10.70
2018-09-27T07:27:24.243Z,10.90
2018-09-27T07:29:54.677Z,11.10
2018-09-27T07:32:25.078Z,11.30
2018-09-27T07:34:55.523Z,11.30
2018-09-27T07:37:26.716Z,11.30
2018-09-27T07:40:16.451Z,11.30
2018-09-27T07:42:47.663Z,11.50
2018-09-27T07:45:18.028Z,11.50
2018-09-27T07:47:48.480Z,11.60
2018-09-27T07:50:22.924Z,11.60
2018-09-27T07:52:53.497Z,11.60
2018-09-27T07:55:24.660Z,11.70
2018-09-27T07:57:55.053Z,11.70
2018-09-27T08:00:25.473Z,11.80
2018-09-27T08:02:56.042Z,12.00
2018-09-27T08:05:26.285Z,12.10
2018-09-27T08:07:56.691Z,12.20
2018-09-27T08:10:27.805Z,12.20
2018-09-27T08:12:58.960Z,12.20
2018-09-27T08:15:31.152Z,12.30
2018-09-27T08:18:02.587Z,12.30
2018-09-27T08:20:33.085Z,12.30
2018-09-27T08:23:03.365Z,12.40
2018-09-27T08:25:35.825Z,12.50
2018-09-27T08:30:54.354Z,12.70
2018-09-27T08:33:25.456Z,12.80
2018-09-27T08:35:55.853Z,12.80
2018-09-27T08:38:26.384Z,12.80
2018-09-27T08:40:57.431Z,12.80
2018-09-27T08:43:27.817Z,12.80
2018-09-27T08:45:58.330Z,12.80
2018-09-27T08:48:28.633Z,12.90
2018-09-27T08:50:59.118Z,12.90
2018-09-27T08:53:29.546Z,12.90
2018-09-27T08:56:00.023Z,13.00
2018-09-27T08:58:32.041Z,13.20
2018-09-27T09:01:03.159Z,13.10
2018-09-27T09:03:33.697Z,13.10
2018-09-27T09:06:03.951Z,13.20
2018-09-27T09:08:35.332Z,13.30
2018-09-27T09:11:05.715Z,13.30
2018-09-27T09:13:36.959Z,13.50
2018-09-27T09:16:07.287Z,13.50
2018-09-27T09:18:37.612Z,13.60
2018-09-27T09:21:08.779Z,13.80
2018-09-27T09:23:39.210Z,13.80
2018-09-27T09:26:09.846Z,14.00
2018-09-27T09:28:40.946Z,14.20
2018-09-27T09:31:30.715Z,14.10
2018-09-27T09:34:01.107Z,14.30
2018-09-27T09:36:33.208Z,14.40
2018-09-27T09:39:03.641Z,14.40
2018-09-27T09:41:34.732Z,14.50
2018-09-27T09:44:05.156Z,14.60
2018-09-27T09:46:35.578Z,14.80
2018-09-27T09:49:06.001Z,14.70
2018-09-27T09:51:37.107Z,14.90
2018-09-27T09:54:07.528Z,14.80
2018-09-27T09:56:37.949Z,14.90
2018-09-27T09:59:08.284Z,15.00
2018-09-27T10:01:38.620Z,15.10
2018-09-27T10:04:09.042Z,15.10
2018-09-27T10:06:39.456Z,15.30
2018-09-27T10:09:09.893Z,15.30
2018-09-27T10:11:40.317Z,15.30
2018-09-27T10:14:10.715Z,15.40
2018-09-27T10:16:46.228Z,15.60
2018-09-27T10:19:16.641Z,15.70
2018-09-27T10:21:47.126Z,15.80
2018-09-27T10:24:17.494Z,15.90
2018-09-27T10:26:48.597Z,16.10
2018-09-27T10:29:26.353Z,16.10
2018-09-27T10:31:57.536Z,16.30
2018-09-27T10:34:30.017Z,16.30
2018-09-27T10:37:00.428Z,16.20
2018-09-27T10:39:30.834Z,16.30
2018-09-27T10:42:01.230Z,16.40
2018-09-27T10:44:31.665Z,16.50
2018-09-27T10:47:02.915Z,16.80
2018-09-27T10:49:33.282Z,16.80
2018-09-27T10:52:03.629Z,16.80
2018-09-27T10:54:34.040Z,16.80
2018-09-27T10:57:11.731Z,17.00
2018-09-27T10:59:43.197Z,17.10
2018-09-27T11:02:13.496Z,17.10
2018-09-27T11:04:43.943Z,17.20
2018-09-27T11:07:14.323Z,17.30
2018-09-27T11:09:45.485Z,17.40
2018-09-27T11:12:15.865Z,17.40
2018-09-27T11:14:46.292Z,17.30
2018-09-27T11:17:16.673Z,17.40
2018-09-27T11:19:47.013Z,17.60
2018-09-27T11:22:17.411Z,17.60
2018-09-27T11:24:48.562Z,17.60
2018-09-27T11:27:19.742Z,17.70
2018-09-27T11:30:04.947Z,17.70
2018-09-27T11:32:35.363Z,17.70
2018-09-27T11:35:05.739Z,18.00
2018-09-27T11:37:36.164Z,17.90
2018-09-27T11:40:06.617Z,17.80
2018-09-27T11:42:37.069Z,18.10
2018-09-27T11:45:08.189Z,18.50
2018-09-27T11:50:26.369Z,18.20
2018-09-27T11:52:56.788Z,18.30
2018-09-27T11:55:27.185Z,18.40
2018-09-27T11:57:57.596Z,18.30
2018-09-27T12:00:28.911Z,18.30
2018-09-27T12:02:59.229Z,18.30
2018-09-27T12:05:29.633Z,18.20
2018-09-27T12:08:07.231Z,18.50
2018-09-27T12:10:43.774Z,18.50
2018-09-27T12:13:14.233Z,18.40
2018-09-27T12:15:44.536Z,18.60
2018-09-27T12:18:14.931Z,18.60
2018-09-27T12:20:45.370Z,18.80
2018-09-27T12:23:15.786Z,18.90
2018-09-27T12:25:46.973Z,18.80
2018-09-27T12:28:20.117Z,18.80
2018-09-27T12:30:50.446Z,19.10
2018-09-27T12:33:20.871Z,19.10
2018-09-27T12:35:52.320Z,18.90
2018-09-27T12:38:23.471Z,18.90
2018-09-27T12:40:53.851Z,18.90
2018-09-27T12:43:26.323Z,18.90
2018-09-27T12:45:56.853Z,18.90
2018-09-27T12:48:27.313Z,19.10
2018-09-27T12:50:57.636Z,18.90
2018-09-27T12:53:28.020Z,18.90
2018-09-27T12:55:58.520Z,19.00
2018-09-27T12:58:28.859Z,19.20
2018-09-27T13:00:59.156Z,19.20
2018-09-27T13:03:29.733Z,19.00
2018-09-27T13:06:03.218Z,19.00
2018-09-27T13:08:33.647Z,19.30
2018-09-27T13:11:03.980Z,19.10
2018-09-27T13:13:34.598Z,19.50
2018-09-27T13:16:04.788Z,19.50
2018-09-27T13:18:39.179Z,19.50
2018-09-27T13:21:09.674Z,19.40
2018-09-27T13:23:40.100Z,19.40
2018-09-27T13:26:10.515Z,19.30
2018-09-27T13:28:41.161Z,19.30
2018-09-27T13:31:11.525Z,19.10
2018-09-27T13:33:41.929Z,19.20
2018-09-27T13:36:18.551Z,19.30
2018-09-27T13:38:48.906Z,19.30
2018-09-27T13:41:20.123Z,19.70
2018-09-27T13:43:50.495Z,19.70
2018-09-27T13:46:22.606Z,19.90
2018-09-27T13:48:56.069Z,19.70
2018-09-27T13:51:26.470Z,19.80
2018-09-27T13:53:56.880Z,19.90
2018-09-27T13:56:28.072Z,19.80
2018-09-27T13:58:59.155Z,19.80
2018-09-27T14:01:30.252Z,19.90
2018-09-27T14:04:07.848Z,19.90
2018-09-27T14:06:46.226Z,20.10
2018-09-27T14:09:17.430Z,20.00
2018-09-27T14:11:47.853Z,20.00
2018-09-27T14:14:18.207Z,20.10
2018-09-27T14:16:48.839Z,20.00
2018-09-27T14:19:19.250Z,20.20
2018-09-27T14:21:49.668Z,20.00
2018-09-27T14:24:20.838Z,20.30
2018-09-27T14:26:51.264Z,20.20
2018-09-27T14:29:21.865Z,20.00
2018-09-27T14:31:52.292Z,20.10
2018-09-27T14:34:22.707Z,20.20
2018-09-27T14:36:53.120Z,20.00
2018-09-27T14:39:23.726Z,20.10
2018-09-27T14:41:54.125Z,20.00
2018-09-27T14:44:24.530Z,19.80
2018-09-27T14:47:14.245Z,19.90
2018-09-27T14:49:45.418Z,19.90
2018-09-27T14:52:16.018Z,19.80
2018-09-27T14:54:46.637Z,20.10
2018-09-27T14:57:16.973Z,20.00
2018-09-27T14:59:47.388Z,20.00
2018-09-27T15:05:05.530Z,20.20
2018-09-27T15:07:39.003Z,20.10
2018-09-27T15:10:11.924Z,20.20
2018-09-27T15:12:43.599Z,20.40
2018-09-27T15:15:14.618Z,20.30
2018-09-27T15:17:45.015Z,20.30
2018-09-27T15:20:15.400Z,20.40
2018-09-27T15:22:45.900Z,20.30
2018-09-27T15:25:16.125Z,20.40
2018-09-27T15:27:49.269Z,20.40
2018-09-27T15:30:19.667Z,20.40
2018-09-27T15:32:50.811Z,20.40
2018-09-27T15:35:21.207Z,20.30
2018-09-27T15:37:57.914Z,20.20
2018-09-27T15:40:28.296Z,20.30
2018-09-27T15:43:06.753Z,20.30
2018-09-27T15:45:37.181Z,20.20
2018-09-27T15:48:14.485Z,20.30
2018-09-27T15:50:44.872Z,20.30
2018-09-27T15:53:15.891Z,20.40
2018-09-27T15:55:56.202Z,20.30
2018-09-27T15:58:27.433Z,20.50
2018-09-27T16:00:57.767Z,20.50
2018-09-27T16:03:31.110Z,20.30
2018-09-27T16:06:01.505Z,20.20
2018-09-27T16:08:32.648Z,20.20
2018-09-27T16:11:08.778Z,20.20
2018-09-27T16:13:42.000Z,20.20
2018-09-27T16:16:17.782Z,20.10
2018-09-27T16:18:53.891Z,20.10
2018-09-27T16:21:24.295Z,20.20
2018-09-27T16:23:54.668Z,20.10
2018-09-27T16:26:26.470Z,19.90
2018-09-27T16:28:56.857Z,19.90
2018-09-27T16:31:28.030Z,19.80
2018-09-27T16:33:58.345Z,19.80
2018-09-27T16:36:28.736Z,19.80
2018-09-27T16:38:59.106Z,19.70
2018-09-27T16:41:29.544Z,19.70
2018-09-27T16:43:59.883Z,19.70
2018-09-27T16:46:48.611Z,19.60
2018-09-27T16:49:21.685Z,19.60
2018-09-27T16:51:56.009Z,19.70
2018-09-27T16:54:31.424Z,19.50
2018-09-27T16:57:01.778Z,19.50
2018-09-27T16:59:32.973Z,19.50
2018-09-27T17:02:06.004Z,19.50
2018-09-27T17:04:36.382Z,19.50
2018-09-27T17:07:06.794Z,19.50
2018-09-27T17:09:37.120Z,19.40
2018-09-27T17:12:17.538Z,19.40
2018-09-27T17:14:50.844Z,19.40
2018-09-27T17:17:24.398Z,19.30
2018-09-27T17:19:54.801Z,19.30
2018-09-27T17:22:27.267Z,19.20
2018-09-27T17:24:58.398Z,19.10
2018-09-27T17:27:28.777Z,19.10
2018-09-27T17:29:59.170Z,19.10
2018-09-27T17:32:37.535Z,19.10
2018-09-27T17:35:07.906Z,19.00
2018-09-27T17:37:41.048Z,19.00
2018-09-27T17:40:14.251Z,19.00
2018-09-27T17:42:47.663Z,19.00
2018-09-27T17:45:18.815Z,19.00
2018-09-27T17:47:52.064Z,19.00
2018-09-27T17:50:22.461Z,18.80
2018-09-27T17:53:01.128Z,18.90
2018-09-27T17:55:35.195Z,18.70
2018-09-27T17:58:05.567Z,18.70
2018-09-27T18:00:44.271Z,18.60
2018-09-27T18:06:02.083Z,18.40
2018-09-27T18:08:34.919Z,18.40
2018-09-27T18:11:08.011Z,18.30
2018-09-27T18:13:46.463Z,18.30
2018-09-27T18:16:16.783Z,18.30
2018-09-27T18:18:50.123Z,18.10
2018-09-27T18:21:20.508Z,18.10
2018-09-27T18:23:50.918Z,18.00
2018-09-27T18:26:24.330Z,17.90
2018-09-27T18:28:54.730Z,17.90
2018-09-27T18:31:33.046Z,17.90
2018-09-27T18:34:09.390Z,17.80
2018-09-27T18:36:42.288Z,17.80
2018-09-27T18:39:15.435Z,17.80
2018-09-27T18:41:45.818Z,17.80
2018-09-27T18:44:16.993Z,17.70
2018-09-27T18:46:47.304Z,17.70
2018-09-27T18:49:22.956Z,17.70
2018-09-27T18:51:53.277Z,17.70
2018-09-27T18:54:23.681Z,17.70
2018-09-27T18:56:56.608Z,17.70
2018-09-27T18:59:27.008Z,17.60
2018-09-27T19:01:58.107Z,17.60
2018-09-27T19:04:28.525Z,17.60
2018-09-27T19:07:07.695Z,17.60
2018-09-27T19:09:40.790Z,17.70
2018-09-27T19:12:11.955Z,17.60
2018-09-27T19:14:42.335Z,17.60
2018-09-27T19:17:18.455Z,17.60
2018-09-27T19:19:49.476Z,17.50
2018-09-27T19:22:23.373Z,17.50
2018-09-27T19:24:53.762Z,17.50
2018-09-27T19:27:25.175Z,17.50
2018-09-27T19:30:01.322Z,17.50
2018-09-27T19:32:31.724Z,17.40
2018-09-27T19:35:02.126Z,17.40
2018-09-27T19:37:34.631Z,17.30
2018-09-27T19:40:04.967Z,17.20
2018-09-27T19:42:36.138Z,17.10
2018-09-27T19:45:06.537Z,17.10
2018-09-27T19:47:36.854Z,17.00
2018-09-27T19:50:12.727Z,17.00
2018-09-27T19:52:43.115Z,17.00
2018-09-27T19:55:16.281Z,17.00
2018-09-27T19:57:46.686Z,16.90
2018-09-27T20:00:17.075Z,16.80
2018-09-27T20:02:50.390Z,16.80
2018-09-27T20:05:24.154Z,16.90
2018-09-27T20:07:57.621Z,16.90
2018-09-27T20:13:18.163Z,16.80
2018-09-27T20:15:48.622Z,16.70
2018-09-27T20:18:19.020Z,16.70
2018-09-27T20:20:56.954Z,16.70
2018-09-27T20:23:27.337Z,16.70
2018-09-27T20:26:02.671Z,16.80
2018-09-27T20:28:33.147Z,16.80
2018-09-27T20:31:09.567Z,16.70
2018-09-27T20:33:42.508Z,16.70
2018-09-27T20:36:12.905Z,16.70
2018-09-27T20:38:43.334Z,16.70
2018-09-27T20:41:13.782Z,16.60
2018-09-27T20:43:44.124Z,16.60
2018-09-27T20:46:14.464Z,16.60
2018-09-27T20:48:45.624Z,16.60
2018-09-27T20:51:16.021Z,16.60
2018-09-27T20:53:47.215Z,16.60
2018-09-27T20:56:17.590Z,16.60
2018-09-27T20:58:47.975Z,16.60
2018-09-27T21:01:18.377Z,16.60
2018-09-27T21:03:48.782Z,16.50
2018-09-27T21:06:19.946Z,16.50
2018-09-27T21:08:50.282Z,16.50
2018-09-27T21:11:20.670Z,16.50
2018-09-27T21:13:51.826Z,16.50
2018-09-27T21:16:22.999Z,16.50
2018-09-27T21:18:53.403Z,16.50
2018-09-27T21:21:23.717Z,16.40
2018-09-27T21:23:54.860Z,16.40
2018-09-27T21:26:26.020Z,16.40
2018-09-27T21:28:56.397Z,16.40
2018-09-27T21:31:26.811Z,16.40
2018-09-27T21:33:57.181Z,16.30
2018-09-27T21:36:28.333Z,16.20
2018-09-27T21:38:59.506Z,16.20
2018-09-27T21:41:29.889Z,16.20
2018-09-27T21:44:00.289Z,16.20
2018-09-27T21:46:30.707Z,16.20
2018-09-27T21:49:08.255Z,16.20
2018-09-27T21:51:38.650Z,16.10
2018-09-27T21:54:09.020Z,16.00
2018-09-27T21:56:39.402Z,15.90
2018-09-27T21:59:09.805Z,16.00
2018-09-27T22:01:46.312Z,16.00
2018-09-27T22:04:16.649Z,16.00
2018-09-27T22:06:47.790Z,15.90
2018-09-27T22:09:18.183Z,15.90
2018-09-27T22:11:48.565Z,15.80
2018-09-27T22:14:18.963Z,15.80
2018-09-27T22:16:49.336Z,15.70
2018-09-27T22:19:19.745Z,15.70
2018-09-27T22:21:50.770Z,15.80
2018-09-27T22:24:21.915Z,15.90
2018-09-27T22:26:53.099Z,15.80
2018-09-27T22:29:26.560Z,15.80
2018-09-27T22:31:57.719Z,15.80
2018-09-27T22:34:28.369Z,15.80
2018-09-27T22:36:59.780Z,15.70
2018-09-27T22:39:30.946Z,15.60
2018-09-27T22:42:01.340Z,15.60
2018-09-27T22:44:31.748Z,15.60
2018-09-27T22:47:02.138Z,15.60
2018-09-27T22:49:32.535Z,15.60
2018-09-27T22:52:03.678Z,15.70
2018-09-27T22:54:34.064Z,15.70
2018-09-27T22:57:06.518Z,15.70
2018-09-27T22:59:36.903Z,15.60
2018-09-27T23:02:08.071Z,15.60
2018-09-27T23:04:38.458Z,15.60
2018-09-27T23:07:08.790Z,15.60
2018-09-27T23:09:39.181Z,15.60
2018-09-27T23:12:09.579Z,15.60
2018-09-27T23:14:39.961Z,15.60
2018-09-27T23:17:10.280Z,15.60
2018-09-27T23:19:40.681Z,15.50
2018-09-27T23:22:11.080Z,15.40
2018-09-27T23:24:41.468Z,15.40
2018-09-27T23:27:12.528Z,15.40
2018-09-27T23:29:43.694Z,15.40
2018-09-27T23:32:14.093Z,15.40
2018-09-27T23:34:45.263Z,15.40
2018-09-27T23:37:15.670Z,15.40
2018-09-27T23:39:46.810Z,15.10
2018-09-27T23:42:17.224Z,15.20
2018-09-27T23:44:47.623Z,15.10
2018-09-27T23:47:18.019Z,15.00
2018-09-27T23:49:48.446Z,15.00
2018-09-27T23:52:18.855Z,15.10
2018-09-27T23:54:50.023Z,15.00
2018-09-27T23:57:20.420Z,15.00
2018-09-27T23:59:50.790Z,14.80
